Time;durP1;ratioP1;P1;durP2;ratioP2;P2;SDS_P1;SDS_P2;PMS_P1;PMS_P2;Temp;Humidity;BMP_temperature;BMP_pressure;BME280_temperature;BME280_humidity;BME280_pressure;Samples;Min_cycle;Max_cycle;Signal;HPM_P1;HPM_P2
2023/05/16 00:01:57;;;;;;;1.55;1.00;;;;;;;18.35;58.52;99094.84;4499661;31;34707;-68
2023/05/16 00:04:26;;;;;;;1.27;0.88;;;;;;;18.41;58.32;99082.44;4494908;31;32941;-68
2023/05/16 00:06:53;;;;;;;2.47;1.20;;;;;;;18.42;58.41;99081.41;4495210;31;31416;-68
2023/05/16 00:09:21;;;;;;;6.10;1.45;;;;;;;18.50;58.41;99069.69;4497544;31;33560;-68
2023/05/16 00:11:49;;;;;;;2.33;1.27;;;;;;;18.52;58.55;99075.75;4494731;31;34046;-68
2023/05/16 00:14:18;;;;;;;3.08;1.30;;;;;;;18.47;58.54;99075.47;4497203;31;34753;-68
2023/05/16 00:16:46;;;;;;;1.80;1.08;;;;;;;18.45;58.53;99062.09;4494228;31;33042;-68
2023/05/16 00:19:14;;;;;;;1.60;0.95;;;;;;;18.47;58.62;99057.34;4497192;31;33755;-68
2023/05/16 00:21:43;;;;;;;7.85;1.25;;;;;;;18.48;58.75;99050.03;4498612;31;34085;-68
2023/05/16 00:24:11;;;;;;;2.55;1.15;;;;;;;18.49;58.79;99055.28;4497820;31;34120;-68
2023/05/16 00:26:39;;;;;;;2.90;1.17;;;;;;;18.41;59.05;99058.06;4496334;31;32181;-69
2023/05/16 00:29:06;;;;;;;1.92;1.27;;;;;;;18.37;59.30;99052.16;4495853;31;32274;-68
2023/05/16 00:31:33;;;;;;;1.85;0.98;;;;;;;18.32;59.29;99059.97;4499074;31;35768;-68
2023/05/16 00:34:01;;;;;;;4.97;1.70;;;;;;;18.39;58.99;99065.53;4497596;31;34686;-69
2023/05/16 00:36:30;;;;;;;2.40;1.05;;;;;;;18.32;59.17;99062.69;4497265;31;34393;-68
2023/05/16 00:38:58;;;;;;;2.92;1.45;;;;;;;18.31;59.35;99061.00;4493132;31;34802;-67
2023/05/16 00:41:26;;;;;;;1.55;0.90;;;;;;;18.34;59.29;99062.53;4497674;31;33867;-68
2023/05/16 00:43:54;;;;;;;2.40;1.12;;;;;;;18.35;59.24;99067.75;4491355;31;33559;-68
2023/05/16 00:46:21;;;;;;;1.35;1.10;;;;;;;18.32;59.40;99064.56;4497312;31;33030;-68
2023/05/16 00:48:50;;;;;;;2.92;1.37;;;;;;;18.27;59.64;99073.25;4494114;31;33662;-68
2023/05/16 00:51:18;;;;;;;1.50;0.88;;;;;;;18.29;59.68;99075.75;4484775;31;33735;-69
2023/05/16 00:53:45;;;;;;;2.17;1.10;;;;;;;18.29;59.53;99075.75;4484693;31;34070;-69
2023/05/16 00:56:13;;;;;;;1.00;0.95;;;;;;;18.21;59.58;99076.66;4490855;31;33561;-68
2023/05/16 00:58:41;;;;;;;1.12;0.90;;;;;;;18.16;59.77;99085.31;4496311;31;33675;-68
2023/05/16 01:01:09;;;;;;;2.10;1.10;;;;;;;18.09;60.21;99086.22;4491716;31;33692;-67
2023/05/16 01:03:38;;;;;;;1.52;1.00;;;;;;;18.09;60.44;99086.22;4485742;31;33813;-68
2023/05/16 01:06:06;;;;;;;1.77;1.12;;;;;;;18.10;60.56;99082.50;4490777;31;31942;-70
2023/05/16 01:08:33;;;;;;;1.40;0.95;;;;;;;18.08;60.58;99087.25;4494641;31;34020;-65
2023/05/16 01:11:09;;;;;;;2.28;1.42;;;;;;;18.15;60.47;99090.94;4491106;31;33778;-65
2023/05/16 01:13:58;;;;;;;1.20;0.90;;;;;;;18.21;60.30;99103.75;4495202;31;33877;-65
2023/05/16 01:16:38;;;;;;;2.58;1.27;;;;;;;18.22;60.41;99099.19;4497601;31;34381;-65
2023/05/16 01:19:24;;;;;;;1.35;1.00;;;;;;;18.26;60.23;99078.81;4490018;31;35549;-67
2023/05/16 01:22:03;;;;;;;5.47;1.27;;;;;;;18.24;60.38;99070.06;4482453;32;33994;-66
2023/05/16 01:24:50;;;;;;;1.15;0.93;;;;;;;18.25;60.45;99072.56;4492313;31;33639;-66
2023/05/16 01:27:18;;;;;;;1.70;1.20;;;;;;;18.26;60.51;99076.13;4494468;31;34386;-65
2023/05/16 01:29:46;;;;;;;3.90;1.23;;;;;;;18.24;60.84;99078.19;4482036;31;34514;-65
2023/05/16 01:32:13;;;;;;;1.85;0.98;;;;;;;18.29;60.43;99082.00;4486575;31;33809;-64
2023/05/16 01:34:41;;;;;;;2.35;1.48;;;;;;;18.32;60.39;99088.94;4486768;31;35120;-66
2023/05/16 01:37:18;;;;;;;5.30;1.23;;;;;;;18.31;60.53;99082.69;4484739;31;34054;-64
2023/05/16 01:39:52;;;;;;;1.62;1.05;;;;;;;18.29;60.59;99064.91;4479352;31;34944;-64
2023/05/16 01:42:23;;;;;;;1.27;0.95;;;;;;;18.21;60.92;99048.75;4483422;31;33917;-64
2023/05/16 01:44:51;;;;;;;0.75;0.52;;;;;;;18.29;60.70;99051.38;4482089;31;33874;-64
2023/05/16 01:47:22;;;;;;;1.37;0.75;;;;;;;18.32;60.21;99062.69;4512688;31;34574;-63
2023/05/16 01:50:17;;;;;;;2.75;1.45;;;;;;;18.23;60.30;99049.38;4485796;31;33978;-64
2023/05/16 01:52:45;;;;;;;2.05;0.93;;;;;;;18.29;60.15;99054.94;4480097;31;33747;-65
2023/05/16 01:55:43;;;;;;;1.67;1.08;;;;;;;18.33;60.09;99044.56;4489720;31;33881;-64
2023/05/16 01:58:12;;;;;;;1.65;1.10;;;;;;;18.31;60.43;99043.94;4477890;31;33191;-64
2023/05/16 02:00:40;;;;;;;1.80;0.90;;;;;;;18.33;60.53;99042.72;4483396;31;33951;-64
2023/05/16 02:03:08;;;;;;;3.17;1.48;;;;;;;18.31;60.68;99041.22;4481611;31;35372;-64
2023/05/16 02:05:36;;;;;;;0.82;0.73;;;;;;;18.30;60.44;99028.72;4488489;31;34153;-64
2023/05/16 02:08:04;;;;;;;1.65;1.20;;;;;;;18.26;60.59;99027.38;4482843;31;33501;-65
2023/05/16 02:10:31;;;;;;;1.10;0.77;;;;;;;18.20;60.56;99036.22;4490408;31;33977;-64
2023/05/16 02:12:59;;;;;;;1.25;0.82;;;;;;;18.03;60.91;99040.91;4488741;31;34036;-64
2023/05/16 02:15:27;;;;;;;18.30;1.95;;;;;;;18.06;60.79;99044.09;4492907;31;34528;-65
2023/05/16 02:17:55;;;;;;;0.98;0.62;;;;;;;17.99;60.96;99050.41;4480889;31;32054;-64
2023/05/16 02:20:23;;;;;;;0.50;0.50;;;;;;;18.00;60.66;99044.81;4489336;31;34588;-64
2023/05/16 02:22:50;;;;;;;0.95;0.70;;;;;;;18.09;60.10;99030.19;4484917;31;34293;-64
2023/05/16 02:25:18;;;;;;;0.57;0.57;;;;;;;18.04;60.16;99020.91;4493551;31;33668;-64
2023/05/16 02:27:45;;;;;;;2.08;0.75;;;;;;;18.04;60.01;99016.38;4488746;31;34663;-66
2023/05/16 02:30:13;;;;;;;7.68;1.02;;;;;;;18.02;59.87;99014.88;4492160;31;34754;-65
2023/05/16 02:32:43;;;;;;;5.32;0.60;;;;;;;18.03;59.77;99006.53;4491579;31;35712;-65
2023/05/16 02:35:11;;;;;;;0.68;0.60;;;;;;;18.03;59.88;99003.84;4489441;31;33840;-65
2023/05/16 02:37:39;;;;;;;2.55;0.50;;;;;;;18.04;60.06;99002.84;4496747;31;33155;-65
2023/05/16 02:40:08;;;;;;;0.75;0.75;;;;;;;18.05;60.07;98999.09;4490051;31;34645;-64
2023/05/16 02:42:36;;;;;;;0.88;0.85;;;;;;;17.98;60.04;99008.09;4491193;31;33830;-64
2023/05/16 02:45:04;;;;;;;1.08;0.77;;;;;;;17.79;60.17;99014.84;4486248;31;34604;-65
2023/05/16 02:47:31;;;;;;;0.90;0.82;;;;;;;17.85;59.95;99016.84;4496438;31;32894;-65
2023/05/16 02:49:59;;;;;;;1.15;1.05;;;;;;;17.56;60.92;99034.56;4493199;31;33563;-64
2023/05/16 02:52:27;;;;;;;1.23;0.70;;;;;;;17.75;60.45;99030.53;4492753;31;33438;-65
2023/05/16 02:54:54;;;;;;;2.00;0.80;;;;;;;17.79;60.30;99037.34;4490956;31;34878;-65
2023/05/16 02:57:42;;;;;;;0.52;0.52;;;;;;;17.79;59.92;99034.63;4482503;31;34656;-65
2023/05/16 03:00:13;;;;;;;2.30;0.95;;;;;;;17.79;59.88;99022.97;4492735;31;33875;-65
2023/05/16 03:02:43;;;;;;;2.22;1.08;;;;;;;17.79;60.10;99010.28;4492068;31;35107;-65
2023/05/16 03:05:12;;;;;;;0.55;0.55;;;;;;;17.86;59.91;98994.16;4496515;31;33622;-65
2023/05/16 03:07:40;;;;;;;0.62;0.62;;;;;;;17.82;60.13;98993.69;4484185;31;33454;-65
2023/05/16 03:10:07;;;;;;;1.15;1.00;;;;;;;17.71;60.84;98985.91;4487544;31;34388;-65
2023/05/16 03:12:35;;;;;;;2.75;0.85;;;;;;;17.85;60.44;98993.31;4485031;31;33894;-64
2023/05/16 03:15:03;;;;;;;0.65;0.60;;;;;;;18.01;59.71;99002.31;4489436;31;33587;-65
2023/05/16 03:17:31;;;;;;;0.40;0.40;;;;;;;17.98;59.72;99008.97;4495717;31;32942;-65
2023/05/16 03:19:59;;;;;;;1.23;0.70;;;;;;;17.97;59.90;99017.25;4494435;31;34880;-65
2023/05/16 03:22:27;;;;;;;1.50;0.80;;;;;;;17.91;59.55;99027.78;4492728;31;33428;-65
2023/05/16 03:24:54;;;;;;;0.80;0.73;;;;;;;17.80;59.77;99020.06;4497326;31;34673;-65
2023/05/16 03:27:22;;;;;;;1.58;1.00;;;;;;;17.85;59.54;99030.38;4497720;31;34812;-65
2023/05/16 03:29:49;;;;;;;0.50;0.50;;;;;;;17.87;59.39;99031.88;4488035;31;33753;-67
2023/05/16 03:32:17;;;;;;;0.50;0.50;;;;;;;17.87;59.25;99022.91;4493350;31;33847;-66
2023/05/16 03:34:45;;;;;;;1.40;0.80;;;;;;;17.84;59.58;99032.22;4488613;31;33825;-67
2023/05/16 03:37:14;;;;;;;0.75;0.75;;;;;;;17.90;59.47;99030.66;4490092;31;34463;-67
2023/05/16 03:39:42;;;;;;;1.12;0.85;;;;;;;17.90;59.25;99022.53;4480350;31;33586;-67
2023/05/16 03:42:10;;;;;;;1.95;1.40;;;;;;;17.90;59.38;99019.84;4490295;31;35244;-68
2023/05/16 03:44:37;;;;;;;4.18;0.75;;;;;;;17.91;59.54;99003.44;4493032;31;34121;-68
2023/05/16 03:47:05;;;;;;;0.50;0.50;;;;;;;17.95;59.75;98992.25;4483186;31;33392;-66
2023/05/16 03:49:32;;;;;;;1.30;0.98;;;;;;;17.97;59.56;98995.59;4481902;31;34761;-67
2023/05/16 03:52:00;;;;;;;0.75;0.52;;;;;;;17.99;59.48;98997.09;4496058;31;34922;-69
2023/05/16 03:54:28;;;;;;;1.48;0.80;;;;;;;18.01;59.58;98999.62;4496352;31;34744;-67
2023/05/16 03:56:56;;;;;;;2.05;0.93;;;;;;;18.00;59.43;98993.38;4492603;31;34184;-67
2023/05/16 03:59:23;;;;;;;2.62;1.20;;;;;;;17.89;59.58;99002.75;4492423;31;34991;-67
2023/05/16 04:01:50;;;;;;;1.77;1.05;;;;;;;17.93;59.34;99000.53;4491067;31;35484;-67
2023/05/16 04:04:18;;;;;;;1.75;0.93;;;;;;;17.88;59.32;98995.66;4484319;31;34139;-67
2023/05/16 04:06:46;;;;;;;3.97;1.00;;;;;;;17.97;59.35;98992.88;4487853;31;33518;-67
2023/05/16 04:09:13;;;;;;;1.55;1.02;;;;;;;18.03;59.28;98995.72;4485406;31;33742;-67
2023/05/16 04:11:42;;;;;;;2.95;1.02;;;;;;;18.08;59.45;98997.91;4487895;31;33969;-67
2023/05/16 04:14:09;;;;;;;0.50;0.50;;;;;;;18.09;59.76;98997.69;4479738;31;33972;-68
2023/05/16 04:16:37;;;;;;;1.65;0.90;;;;;;;18.15;59.73;98998.84;4485251;31;34151;-68
2023/05/16 04:19:05;;;;;;;2.65;1.25;;;;;;;18.20;59.49;99006.41;4492575;31;35016;-68
2023/05/16 04:21:32;;;;;;;1.55;0.85;;;;;;;18.22;59.38;99009.78;4495974;31;34516;-68
2023/05/16 04:24:00;;;;;;;0.73;0.73;;;;;;;18.24;59.15;99003.19;4491753;31;34252;-68
2023/05/16 04:26:29;;;;;;;1.08;0.95;;;;;;;18.23;59.39;99009.59;4488909;31;33934;-68
2023/05/16 04:28:57;;;;;;;3.83;1.08;;;;;;;18.08;59.63;99028.53;4496131;31;33611;-68
2023/05/16 04:31:26;;;;;;;1.92;1.20;;;;;;;18.07;59.57;99034.09;4494698;31;34137;-68
2023/05/16 04:33:54;;;;;;;1.95;1.50;;;;;;;18.12;59.73;99037.97;4485888;31;34855;-68
2023/05/16 04:36:22;;;;;;;0.85;0.75;;;;;;;18.16;59.40;99035.72;4489312;31;33529;-68
2023/05/16 04:38:51;;;;;;;0.88;0.57;;;;;;;18.11;59.80;99049.81;4483230;31;33874;-68
2023/05/16 04:41:19;;;;;;;2.28;0.98;;;;;;;18.03;60.04;99046.31;4492812;31;33940;-69
2023/05/16 04:43:46;;;;;;;1.75;0.80;;;;;;;18.10;59.85;99031.03;4491172;31;33858;-68
2023/05/16 04:46:16;;;;;;;1.37;0.93;;;;;;;18.08;59.78;99025.81;4492590;31;34235;-68
2023/05/16 04:48:45;;;;;;;1.48;0.98;;;;;;;17.86;60.30;99024.78;4491694;31;34758;-68
2023/05/16 04:51:12;;;;;;;0.80;0.75;;;;;;;17.89;60.35;99029.00;4495215;31;35170;-68
2023/05/16 04:53:39;;;;;;;7.05;0.98;;;;;;;18.04;60.02;99032.63;4496953;31;35009;-66
2023/05/16 04:56:07;;;;;;;1.35;1.27;;;;;;;18.09;59.76;99042.91;4494190;31;33208;-66
2023/05/16 04:58:36;;;;;;;2.00;1.12;;;;;;;17.76;60.75;99044.94;4486543;31;33606;-67
2023/05/16 05:01:03;;;;;;;1.27;0.65;;;;;;;17.85;60.48;99052.88;4492368;31;34034;-67
2023/05/16 05:03:31;;;;;;;0.82;0.52;;;;;;;18.04;59.83;99045.28;4495637;31;33757;-67
2023/05/16 05:05:58;;;;;;;1.25;0.75;;;;;;;18.08;59.84;99043.94;4493595;31;33539;-66
2023/05/16 05:08:26;;;;;;;1.65;1.20;;;;;;;18.13;59.82;99050.47;4486380;31;34012;-66
2023/05/16 05:10:57;;;;;;;1.37;0.85;;;;;;;18.21;59.67;99035.22;4492673;31;33904;-66
2023/05/16 05:13:24;;;;;;;1.27;0.90;;;;;;;18.24;59.59;99038.41;4482542;31;34406;-67
2023/05/16 05:15:52;;;;;;;1.27;0.85;;;;;;;18.27;59.52;99048.87;4484537;31;33170;-67
2023/05/16 05:18:19;;;;;;;0.70;0.70;;;;;;;18.32;59.37;99056.44;4491292;31;34120;-66
2023/05/16 05:20:47;;;;;;;2.15;1.37;;;;;;;18.01;59.84;99068.19;4488505;31;34875;-66
2023/05/16 05:23:14;;;;;;;1.45;0.93;;;;;;;18.26;59.05;99063.41;4496490;31;33964;-66
2023/05/16 05:25:42;;;;;;;2.83;1.33;;;;;;;18.31;58.94;99052.06;4488018;31;32925;-65
2023/05/16 05:28:09;;;;;;;2.42;1.27;;;;;;;18.35;58.68;99051.50;4482674;31;33946;-66
2023/05/16 05:30:37;;;;;;;1.45;1.00;;;;;;;18.27;58.74;99046.16;4485764;31;35078;-66
2023/05/16 05:33:06;;;;;;;2.60;0.98;;;;;;;18.27;58.73;99053.44;4487602;31;32332;-66
2023/05/16 05:35:34;;;;;;;2.90;1.27;;;;;;;18.20;59.04;99042.47;4483668;31;33191;-66
2023/05/16 05:38:01;;;;;;;2.55;1.30;;;;;;;18.19;58.86;99035.38;4490718;31;34929;-66
2023/05/16 05:40:29;;;;;;;1.85;1.27;;;;;;;18.11;59.29;99054.41;4490206;31;34899;-66
2023/05/16 05:42:57;;;;;;;5.47;1.05;;;;;;;18.21;59.21;99051.47;4485037;31;34346;-66
2023/05/16 05:45:24;;;;;;;1.90;1.15;;;;;;;18.31;59.22;99044.75;4493638;31;33153;-65
2023/05/16 05:47:53;;;;;;;1.37;1.00;;;;;;;18.41;59.20;99038.25;4491218;31;33759;-66
2023/05/16 05:50:20;;;;;;;1.40;0.82;;;;;;;18.44;59.52;99037.91;4488626;31;33845;-66
2023/05/16 05:52:48;;;;;;;2.05;1.20;;;;;;;18.43;60.06;99044.34;4494435;31;33508;-66
2023/05/16 05:55:16;;;;;;;2.03;1.27;;;;;;;18.45;59.71;99050.41;4490487;31;33387;-66
2023/05/16 05:57:43;;;;;;;2.03;1.23;;;;;;;18.56;59.38;99044.56;4484384;31;32095;-65
2023/05/16 06:00:11;;;;;;;2.12;1.50;;;;;;;18.48;59.61;99042.75;4497620;31;33804;-66
2023/05/16 06:02:39;;;;;;;2.30;1.30;;;;;;;18.49;59.68;99035.47;4492344;31;32778;-66
2023/05/16 06:05:07;;;;;;;1.80;1.12;;;;;;;18.64;59.19;99036.34;4498123;31;33163;-66
2023/05/16 06:07:35;;;;;;;1.55;1.05;;;;;;;18.68;59.19;99034.94;4492028;31;33938;-66
2023/05/16 06:10:04;;;;;;;1.50;0.95;;;;;;;18.70;59.35;99035.63;4491197;31;32945;-66
2023/05/16 06:12:32;;;;;;;1.85;1.17;;;;;;;18.70;59.37;99032.06;4488470;31;34630;-65
2023/05/16 06:14:59;;;;;;;1.10;0.93;;;;;;;18.68;59.27;99026.81;4490298;31;33514;-66
2023/05/16 06:17:27;;;;;;;1.35;0.85;;;;;;;18.69;59.01;99025.81;4481007;31;32375;-66
2023/05/16 06:19:54;;;;;;;3.00;1.12;;;;;;;18.73;59.18;99021.72;4491627;31;34785;-66
2023/05/16 06:22:22;;;;;;;2.12;1.20;;;;;;;18.69;59.78;99025.81;4491833;31;34666;-66
2023/05/16 06:24:50;;;;;;;1.40;1.00;;;;;;;18.79;59.18;99010.16;4497619;31;34213;-66
2023/05/16 06:27:17;;;;;;;1.33;0.90;;;;;;;18.77;59.74;99012.19;4490351;31;33695;-65
2023/05/16 06:29:45;;;;;;;1.62;1.00;;;;;;;18.84;59.66;99018.56;4482113;31;32817;-66
2023/05/16 06:32:12;;;;;;;1.50;0.95;;;;;;;18.85;59.91;99020.25;4484066;31;34766;-67
2023/05/16 06:34:40;;;;;;;2.85;1.25;;;;;;;18.77;60.20;99003.22;4494562;31;34500;-63
2023/05/16 06:37:08;;;;;;;1.70;1.30;;;;;;;18.67;59.93;99008.03;4497830;31;33997;-63
2023/05/16 06:39:35;;;;;;;2.25;1.10;;;;;;;18.51;60.21;98996.31;4496894;31;34083;-64
2023/05/16 06:42:03;;;;;;;2.85;1.85;;;;;;;18.67;59.55;99006.16;4489605;31;34597;-65
2023/05/16 06:44:31;;;;;;;2.85;1.42;;;;;;;18.66;59.40;99000.94;4494080;31;32181;-65
2023/05/16 06:46:59;;;;;;;2.83;1.83;;;;;;;18.68;59.42;99002.41;4484710;31;33882;-65
2023/05/16 06:49:26;;;;;;;3.25;1.40;;;;;;;18.44;59.92;99006.22;4484552;31;33894;-66
2023/05/16 06:51:54;;;;;;;2.42;1.77;;;;;;;18.46;60.01;99004.19;4485694;31;32521;-65
2023/05/16 06:54:22;;;;;;;5.05;1.67;;;;;;;18.41;60.68;98997.63;4489409;31;33416;-66
2023/05/16 06:56:49;;;;;;;3.92;1.65;;;;;;;18.07;62.67;98996.19;4491545;31;33662;-66
2023/05/16 06:59:17;;;;;;;3.42;1.83;;;;;;;17.95;63.05;99005.78;4491453;31;33892;-66
2023/05/16 07:01:45;;;;;;;2.70;1.55;;;;;;;17.40;64.17;99008.44;4490813;31;33907;-64
2023/05/16 07:04:13;;;;;;;4.53;2.65;;;;;;;17.75;63.39;99008.06;4488437;31;33710;-67
2023/05/16 07:06:40;;;;;;;2.83;1.80;;;;;;;17.51;63.95;99006.34;4484319;31;34595;-66
2023/05/16 07:09:08;;;;;;;4.18;2.17;;;;;;;17.58;63.14;99016.28;4486615;31;34569;-66
2023/05/16 07:11:36;;;;;;;4.43;2.42;;;;;;;17.08;65.03;99020.22;4495470;31;33953;-65
2023/05/16 07:14:03;;;;;;;4.00;1.83;;;;;;;17.24;65.02;99013.91;4494078;31;33465;-65
2023/05/16 07:16:31;;;;;;;4.15;1.92;;;;;;;16.95;66.41;99020.78;4493128;31;32124;-66
2023/05/16 07:18:59;;;;;;;2.85;2.08;;;;;;;16.68;67.59;99015.72;4499348;31;34930;-66
2023/05/16 07:21:28;;;;;;;15.70;3.35;;;;;;;16.17;69.72;99009.66;4496996;31;33921;-66
2023/05/16 07:23:56;;;;;;;3.05;1.95;;;;;;;15.84;72.04;99001.56;4492051;31;34661;-66
2023/05/16 07:26:23;;;;;;;3.53;2.28;;;;;;;15.71;72.46;98995.81;4496331;31;34750;-66
2023/05/16 07:28:51;;;;;;;4.37;2.33;;;;;;;16.22;70.76;98997.34;4485779;31;32994;-66
2023/05/16 07:31:19;;;;;;;4.68;2.12;;;;;;;16.10;71.96;98996.00;4489194;31;34165;-66
2023/05/16 07:33:47;;;;;;;4.70;2.47;;;;;;;16.40;70.60;98997.16;4488512;31;33321;-66
2023/05/16 07:36:15;;;;;;;4.87;2.80;;;;;;;16.25;71.39;99002.44;4493262;31;34215;-65
2023/05/16 07:38:44;;;;;;;4.07;2.60;;;;;;;15.77;73.45;98997.84;4493235;31;32681;-66
2023/05/16 07:41:12;;;;;;;7.47;3.03;;;;;;;15.91;73.39;98994.47;4488283;31;33941;-66
2023/05/16 07:43:39;;;;;;;4.87;2.70;;;;;;;15.41;76.01;99002.59;4499938;31;32983;-66
2023/05/16 07:46:07;;;;;;;3.70;2.22;;;;;;;15.92;74.32;98985.38;4496463;31;32736;-66
2023/05/16 07:48:35;;;;;;;5.18;3.08;;;;;;;15.77;75.39;98995.13;4486157;31;35111;-66
2023/05/16 07:51:03;;;;;;;5.35;3.37;;;;;;;15.82;75.58;98995.47;4494751;31;34120;-66
2023/05/16 07:53:30;;;;;;;3.58;2.53;;;;;;;15.76;76.36;98988.03;4493196;31;34430;-66
2023/05/16 07:55:58;;;;;;;7.32;3.55;;;;;;;15.58;77.78;98989.00;4487471;31;33793;-65
2023/05/16 07:58:26;;;;;;;5.85;4.00;;;;;;;15.84;76.96;98993.47;4494903;31;33935;-66
2023/05/16 08:00:54;;;;;;;7.68;4.68;;;;;;;16.19;75.14;99000.41;4487323;31;32261;-66
2023/05/16 08:03:22;;;;;;;7.22;4.35;;;;;;;16.43;74.07;99002.22;4499405;31;34137;-67
2023/05/16 08:05:50;;;;;;;11.43;5.25;;;;;;;15.96;76.54;98992.12;4491968;31;33877;-66
2023/05/16 08:08:21;;;;;;;6.90;3.15;;;;;;;16.25;75.37;99002.44;4495504;31;32785;-65
2023/05/16 08:10:49;;;;;;;7.12;4.37;;;;;;;16.14;76.15;98999.22;4488882;31;33922;-66
2023/05/16 08:13:16;;;;;;;6.93;3.53;;;;;;;16.42;75.14;99005.13;4492263;31;32209;-66
2023/05/16 08:15:44;;;;;;;8.70;4.70;;;;;;;16.34;75.78;99000.56;4496576;31;32333;-65
2023/05/16 08:18:15;;;;;;;4.75;3.10;;;;;;;16.52;74.68;99003.06;4496358;31;32911;-65
2023/05/16 08:20:43;;;;;;;6.90;4.00;;;;;;;16.41;75.21;99006.97;4497375;31;34950;-66
2023/05/16 08:23:13;;;;;;;7.03;3.80;;;;;;;16.44;75.90;98998.53;4498558;31;33972;-65
2023/05/16 08:25:41;;;;;;;7.05;3.55;;;;;;;15.75;79.56;98991.75;4493618;31;33049;-65
2023/05/16 08:28:08;;;;;;;5.05;3.55;;;;;;;15.78;80.60;98989.56;4495789;31;33936;-63
2023/05/16 08:30:36;;;;;;;7.97;4.53;;;;;;;15.81;80.73;98985.69;4490117;31;32675;-64
2023/05/16 08:33:06;;;;;;;6.65;3.95;;;;;;;16.03;79.43;98979.63;4487853;31;33392;-65
2023/05/16 08:35:34;;;;;;;7.37;3.75;;;;;;;16.19;78.98;98969.84;4497013;31;33172;-66
2023/05/16 08:38:02;;;;;;;8.82;4.62;;;;;;;15.47;82.45;98978.50;4495374;31;35255;-68
2023/05/16 08:40:30;;;;;;;10.45;4.68;;;;;;;15.73;82.23;98970.34;4499243;31;33973;-67
2023/05/16 08:42:57;;;;;;;12.70;4.07;;;;;;;16.03;81.28;98970.69;4496957;31;33621;-66
2023/05/16 08:45:26;;;;;;;4.65;2.85;;;;;;;15.93;81.51;98970.88;4485709;31;33627;-66
2023/05/16 08:47:55;;;;;;;3.90;2.45;;;;;;;15.73;82.86;98980.28;4490658;31;34402;-66
2023/05/16 08:50:24;;;;;;;3.65;2.15;;;;;;;16.23;81.06;98973.91;4489543;31;34869;-66
2023/05/16 08:52:52;;;;;;;6.75;3.65;;;;;;;16.30;80.42;98964.94;4488339;31;33412;-67
2023/05/16 08:55:23;;;;;;;5.75;3.15;;;;;;;16.21;81.09;98970.50;4494437;31;32368;-66
2023/05/16 08:57:50;;;;;;;6.28;3.40;;;;;;;16.03;84.12;98965.31;4497495;31;34187;-66
2023/05/16 09:00:19;;;;;;;9.45;4.95;;;;;;;16.17;82.37;98971.87;4483029;31;33753;-65
2023/05/16 09:02:47;;;;;;;4.68;1.87;;;;;;;15.51;87.40;98977.19;4487385;31;33562;-67
2023/05/16 09:05:16;;;;;;;6.78;2.67;;;;;;;16.03;83.78;98973.41;4484600;31;34094;-66
2023/05/16 09:07:44;;;;;;;8.32;3.55;;;;;;;15.55;85.82;98972.31;4489201;31;33858;-66
2023/05/16 09:10:12;;;;;;;5.65;2.50;;;;;;;15.64;85.00;98968.62;4490404;31;35262;-65
2023/05/16 09:12:40;;;;;;;4.12;2.72;;;;;;;15.77;84.96;98958.22;4490424;31;33788;-66
2023/05/16 09:15:09;;;;;;;3.97;1.87;;;;;;;16.09;82.59;98956.53;4493824;31;33651;-67
2023/05/16 09:17:38;;;;;;;3.58;2.50;;;;;;;15.81;83.80;98961.41;4490323;31;33888;-68
2023/05/16 09:20:17;;;;;;;4.15;2.37;;;;;;;15.62;85.29;98976.00;4490086;31;32797;-65
2023/05/16 09:22:54;;;;;;;4.07;1.65;;;;;;;16.03;84.35;98973.41;4497140;31;33060;-66
2023/05/16 09:25:24;;;;;;;4.57;1.95;;;;;;;15.80;84.45;98973.22;4486094;31;33863;-68
2023/05/16 09:28:00;;;;;;;4.43;2.55;;;;;;;15.67;85.88;98965.63;4489924;31;34356;-67
2023/05/16 09:30:31;;;;;;;4.37;2.30;;;;;;;15.37;86.55;98953.53;4491892;31;34185;-67
2023/05/16 09:32:59;;;;;;;1.77;1.17;;;;;;;15.81;85.36;98950.63;4495030;31;33755;-65
2023/05/16 09:35:26;;;;;;;5.40;2.70;;;;;;;16.12;82.75;98953.50;4490813;31;34893;-66
2023/05/16 09:37:57;;;;;;;2.90;1.98;;;;;;;15.21;88.40;98945.41;4492237;31;34890;-65
2023/05/16 09:40:25;;;;;;;3.25;1.80;;;;;;;15.45;88.69;98950.88;4491786;31;34001;-66
2023/05/16 09:43:03;;;;;;;5.12;2.50;;;;;;;15.93;84.93;98954.69;4490296;31;33272;-65
2023/05/16 09:45:32;;;;;;;3.37;2.03;;;;;;;15.93;84.38;98953.84;4487171;31;32201;-65
2023/05/16 09:48:04;;;;;;;3.85;2.15;;;;;;;15.75;86.55;98964.78;4497382;31;35284;-66
2023/05/16 09:50:33;;;;;;;5.10;2.83;;;;;;;15.88;84.17;98966.97;4488794;31;32497;-66
2023/05/16 09:53:01;;;;;;;7.55;2.85;;;;;;;16.01;83.99;98968.16;4485215;31;33290;-65
2023/05/16 09:55:30;;;;;;;5.32;1.92;;;;;;;15.99;83.81;98963.97;4495191;31;34996;-66
2023/05/16 09:57:57;;;;;;;4.20;2.53;;;;;;;16.03;83.97;98960.75;4484130;31;33674;-65
2023/05/16 10:00:30;;;;;;;4.57;2.60;;;;;;;15.90;84.89;98956.87;4489563;31;34862;-65
2023/05/16 10:02:59;;;;;;;4.75;2.60;;;;;;;15.96;84.44;98957.03;4492336;31;33277;-65
2023/05/16 10:05:31;;;;;;;4.97;2.95;;;;;;;15.74;84.58;98949.59;4490537;31;33396;-66
2023/05/16 10:08:01;;;;;;;7.05;3.95;;;;;;;16.04;84.99;98957.03;4492221;31;34870;-66
2023/05/16 10:10:29;;;;;;;6.03;3.05;;;;;;;15.91;85.44;98947.75;4493280;31;34504;-66
2023/05/16 10:13:00;;;;;;;6.97;2.95;;;;;;;15.86;86.14;98948.28;4497458;31;33151;-66
2023/05/16 10:15:28;;;;;;;4.30;2.62;;;;;;;16.04;85.73;98951.63;4483606;31;33977;-66
2023/05/16 10:18:00;;;;;;;5.32;3.25;;;;;;;16.18;84.62;98946.56;4484304;31;35763;-66
2023/05/16 10:20:28;;;;;;;4.93;2.90;;;;;;;16.34;83.61;98953.78;4490919;31;34639;-67
2023/05/16 10:22:57;;;;;;;9.93;3.72;;;;;;;16.46;82.75;98938.94;4491730;31;34291;-65
2023/05/16 10:25:40;;;;;;;6.22;3.90;;;;;;;16.31;83.94;98936.09;4489311;31;34909;-65
2023/05/16 10:28:08;;;;;;;5.72;3.53;;;;;;;16.21;85.10;98930.00;4493197;31;33803;-65
2023/05/16 10:30:39;;;;;;;4.97;2.22;;;;;;;16.38;83.22;98926.28;4492241;31;33654;-65
2023/05/16 10:33:07;;;;;;;4.47;2.95;;;;;;;16.37;83.82;98927.31;4490331;31;33224;-63
2023/05/16 10:35:37;;;;;;;5.55;3.58;;;;;;;16.27;84.07;98934.75;4491874;31;33293;-65
2023/05/16 10:38:06;;;;;;;6.40;3.33;;;;;;;16.27;84.07;98938.28;4496335;31;33804;-62
2023/05/16 10:40:35;;;;;;;5.00;3.50;;;;;;;16.14;85.46;98935.25;4499300;31;33529;-63
2023/05/16 10:43:05;;;;;;;6.30;3.78;;;;;;;16.24;84.74;98941.34;4489348;31;34482;-62
2023/05/16 10:45:32;;;;;;;4.72;3.35;;;;;;;16.12;85.85;98931.91;4492352;31;34216;-62
2023/05/16 10:48:05;;;;;;;6.45;4.18;;;;;;;16.25;84.32;98923.28;4508159;31;35238;-61
2023/05/16 10:50:41;;;;;;;4.90;3.20;;;;;;;16.46;83.76;98899.25;4492141;31;34513;-62
2023/05/16 10:53:21;;;;;;;5.25;3.03;;;;;;;16.05;87.56;98883.16;4491467;31;34123;-62
2023/05/16 10:55:50;;;;;;;6.07;3.30;;;;;;;16.01;87.47;98889.88;4497650;31;35044;-62
2023/05/16 10:58:23;;;;;;;5.68;3.22;;;;;;;16.09;87.18;98897.16;4496920;31;33805;-62
2023/05/16 11:01:23;;;;;;;6.37;3.33;;;;;;;16.09;88.83;98896.31;4495840;31;33985;-63
2023/05/16 11:04:02;;;;;;;5.18;2.70;;;;;;;16.20;89.20;98887.84;4489700;31;34250;-64
2023/05/16 11:06:44;;;;;;;6.65;3.53;;;;;;;16.48;86.03;98872.09;4485434;31;34505;-65
2023/05/16 11:09:12;;;;;;;6.60;2.87;;;;;;;15.88;89.91;98878.75;4494241;31;33742;-63
2023/05/16 11:11:52;;;;;;;5.53;3.08;;;;;;;16.13;89.97;98884.16;4494578;31;33772;-63
2023/05/16 11:14:28;;;;;;;8.20;3.60;;;;;;;16.26;87.09;98862.84;4499017;31;33043;-64
2023/05/16 11:17:01;;;;;;;5.72;3.17;;;;;;;15.90;90.68;98857.87;4491047;31;33763;-63
2023/05/16 11:19:51;;;;;;;7.40;3.80;;;;;;;16.41;87.08;98844.09;4493135;31;33870;-64
2023/05/16 11:22:20;;;;;;;9.02;4.68;;;;;;;16.07;90.27;98853.28;4497826;31;34940;-62
2023/05/16 11:24:55;;;;;;;5.85;2.85;;;;;;;15.89;92.43;98848.09;4496258;31;33448;-64
2023/05/16 11:27:31;;;;;;;5.20;2.67;;;;;;;15.90;91.17;98852.47;4493313;31;34818;-65
2023/05/16 11:30:20;;;;;;;4.90;3.00;;;;;;;16.05;90.72;98839.97;4491811;31;33623;-64
2023/05/16 11:32:49;;;;;;;7.53;3.55;;;;;;;16.35;88.06;98856.44;4491369;31;34955;-63
2023/05/16 11:35:17;;;;;;;6.95;2.78;;;;;;;16.08;89.79;98863.06;4493644;31;35463;-63
2023/05/16 11:37:45;;;;;;;3.83;2.47;;;;;;;16.34;88.53;98864.69;4494470;31;34704;-64
2023/05/16 11:40:14;;;;;;;9.63;3.60;;;;;;;16.60;86.54;98862.59;4490695;31;33696;-63
2023/05/16 11:42:50;;;;;;;7.37;2.70;;;;;;;16.43;86.79;98855.56;4491331;31;33703;-65
2023/05/16 11:45:21;;;;;;;8.55;4.47;;;;;;;16.09;90.32;98853.13;4502680;31;33476;-64